createdAt,value
2018-12-04T00:00:23.415Z,9.10
2018-12-04T00:02:51.380Z,9.00
2018-12-04T00:05:19.279Z,9.00
2018-12-04T00:07:47.404Z,9.00
2018-12-04T00:10:29.266Z,9.00
2018-12-04T00:12:57.207Z,8.90
2018-12-04T00:15:25.164Z,8.90
2018-12-04T00:17:53.102Z,8.90
2018-12-04T00:20:21.066Z,8.90
2018-12-04T00:22:49.008Z,8.90
2018-12-04T00:25:16.927Z,8.90
2018-12-04T00:27:44.893Z,8.90
2018-12-04T00:30:12.817Z,8.90
2018-12-04T00:32:40.696Z,8.80
2018-12-04T00:35:08.618Z,8.80
2018-12-04T00:37:36.556Z,8.80
2018-12-04T00:40:05.853Z,8.80
2018-12-04T00:42:33.792Z,8.80
2018-12-04T00:45:01.680Z,8.80
2018-12-04T00:47:29.576Z,8.80
2018-12-04T00:49:57.478Z,8.80
2018-12-04T00:52:25.394Z,8.80
2018-12-04T00:54:53.306Z,8.80
2018-12-04T00:57:21.238Z,8.80
2018-12-04T00:59:49.113Z,8.80
2018-12-04T01:02:17.065Z,8.80
2018-12-04T01:04:45.000Z,8.80
2018-12-04T01:07:12.899Z,8.90
2018-12-04T01:09:40.833Z,8.90
2018-12-04T01:12:08.803Z,8.90
2018-12-04T01:14:36.771Z,8.90
2018-12-04T01:17:04.743Z,8.90
2018-12-04T01:19:32.674Z,9.00
2018-12-04T01:22:01.147Z,9.00
2018-12-04T01:24:29.179Z,9.00
2018-12-04T01:26:57.079Z,9.00
2018-12-04T01:29:25.218Z,9.00
2018-12-04T01:31:53.134Z,9.00
2018-12-04T01:34:21.045Z,9.10
2018-12-04T01:36:49.938Z,9.10
2018-12-04T01:39:18.094Z,9.10
2018-12-04T01:41:46.023Z,9.10
2018-12-04T01:44:13.914Z,9.10
2018-12-04T01:46:41.845Z,9.10
2018-12-04T01:49:09.814Z,9.10
2018-12-04T01:51:37.730Z,9.10
2018-12-04T01:54:05.647Z,9.10
2018-12-04T01:56:34.211Z,9.10
2018-12-04T01:59:02.557Z,9.10
2018-12-04T02:01:30.552Z,9.00
2018-12-04T02:04:00.494Z,9.00
2018-12-04T02:06:28.397Z,9.00
2018-12-04T02:08:56.383Z,9.00
2018-12-04T02:11:25.327Z,9.00
2018-12-04T02:13:53.261Z,8.90
2018-12-04T02:16:21.188Z,8.90
2018-12-04T02:18:49.147Z,8.90
2018-12-04T02:21:17.074Z,9.00
2018-12-04T02:23:44.932Z,9.00
2018-12-04T02:26:16.295Z,9.00
2018-12-04T02:28:44.186Z,9.00
2018-12-04T02:31:12.120Z,9.00
2018-12-04T02:33:39.981Z,9.00
2018-12-04T02:36:07.965Z,9.00
2018-12-04T02:38:35.866Z,9.00
2018-12-04T02:41:03.987Z,9.00
2018-12-04T02:43:31.882Z,9.00
2018-12-04T02:45:59.831Z,9.00
2018-12-04T02:48:27.759Z,9.00
2018-12-04T02:50:55.670Z,9.00
2018-12-04T02:53:27.107Z,9.00
2018-12-04T02:55:55.006Z,9.00
2018-12-04T02:58:22.893Z,9.00
2018-12-04T03:00:50.829Z,9.00
2018-12-04T03:03:18.735Z,9.00
2018-12-04T03:05:46.603Z,9.10
2018-12-04T03:08:14.499Z,9.10
2018-12-04T03:10:42.527Z,9.10
2018-12-04T03:13:10.450Z,9.10
2018-12-04T03:15:38.359Z,9.00
2018-12-04T03:18:06.293Z,9.00
2018-12-04T03:20:34.692Z,9.10
2018-12-04T03:23:02.653Z,9.10
2018-12-04T03:25:30.561Z,9.10
2018-12-04T03:27:58.484Z,9.10
2018-12-04T03:30:26.404Z,9.00
2018-12-04T03:32:54.340Z,9.00
2018-12-04T03:35:22.375Z,8.90
2018-12-04T03:37:50.301Z,8.90
2018-12-04T03:40:18.221Z,8.80
2018-12-04T03:42:46.198Z,8.80
2018-12-04T03:45:14.140Z,8.80
2018-12-04T03:47:42.068Z,8.80
2018-12-04T03:50:10.005Z,8.80
2018-12-04T03:52:37.906Z,8.70
2018-12-04T03:55:06.014Z,8.70
2018-12-04T03:57:33.957Z,8.80
2018-12-04T04:00:01.910Z,8.70
2018-12-04T04:02:29.805Z,8.70
2018-12-04T04:04:57.728Z,8.70
2018-12-04T04:07:25.691Z,8.70
2018-12-04T04:09:53.838Z,8.70
2018-12-04T04:12:22.943Z,8.70
2018-12-04T04:14:50.819Z,8.70
2018-12-04T04:17:18.760Z,8.70
2018-12-04T04:19:46.711Z,8.80
2018-12-04T04:22:14.632Z,8.80
2018-12-04T04:24:42.553Z,8.80
2018-12-04T04:27:10.520Z,8.80
2018-12-04T04:29:38.523Z,8.80
2018-12-04T04:32:06.489Z,8.80
2018-12-04T04:34:34.399Z,8.70
2018-12-04T04:37:02.321Z,8.70
2018-12-04T04:39:30.277Z,8.70
2018-12-04T04:41:58.255Z,8.70
2018-12-04T04:44:26.192Z,8.70
2018-12-04T04:46:54.128Z,8.70
2018-12-04T04:49:22.007Z,8.80
2018-12-04T04:51:49.939Z,8.80
2018-12-04T04:54:17.860Z,8.70
2018-12-04T04:56:45.840Z,8.70
2018-12-04T04:59:13.796Z,8.70
2018-12-04T05:01:41.710Z,8.70
2018-12-04T05:04:09.661Z,8.80
2018-12-04T05:06:37.630Z,8.70
2018-12-04T05:09:06.660Z,8.60
2018-12-04T05:11:36.433Z,8.50
2018-12-04T05:14:04.390Z,8.30
2018-12-04T05:16:32.470Z,8.10
2018-12-04T05:19:00.502Z,7.90
2018-12-04T05:21:28.450Z,7.90
2018-12-04T05:23:56.502Z,7.80
2018-12-04T05:26:24.430Z,7.80
2018-12-04T05:28:52.369Z,7.80
2018-12-04T05:31:20.271Z,7.80
2018-12-04T05:33:48.192Z,7.80
2018-12-04T05:36:16.174Z,7.80
2018-12-04T05:38:44.099Z,7.80
2018-12-04T05:41:12.471Z,7.80
2018-12-04T05:43:40.408Z,7.70
2018-12-04T05:46:08.316Z,7.60
2018-12-04T05:48:36.648Z,7.50
2018-12-04T05:51:04.948Z,7.50
2018-12-04T05:53:35.538Z,7.40
2018-12-04T05:56:04.488Z,7.30
2018-12-04T05:58:32.412Z,7.30
2018-12-04T06:01:00.705Z,7.20
2018-12-04T06:03:28.672Z,7.10
2018-12-04T06:05:56.623Z,7.00
2018-12-04T06:08:24.539Z,7.00
2018-12-04T06:10:52.961Z,7.00
2018-12-04T06:13:24.543Z,7.00
2018-12-04T06:15:52.507Z,7.00
2018-12-04T06:18:20.410Z,6.90
2018-12-04T06:20:48.360Z,6.90
2018-12-04T06:23:16.332Z,6.80
2018-12-04T06:25:44.312Z,6.80
2018-12-04T06:28:12.263Z,6.80
2018-12-04T06:30:40.550Z,6.80
2018-12-04T06:33:08.966Z,6.80
2018-12-04T06:35:37.018Z,6.70
2018-12-04T06:38:05.006Z,6.70
2018-12-04T06:40:32.952Z,6.70
2018-12-04T06:43:00.958Z,6.70
2018-12-04T06:45:30.954Z,6.70
2018-12-04T06:47:58.898Z,6.70
2018-12-04T06:50:26.877Z,6.70
2018-12-04T06:52:54.790Z,6.70
2018-12-04T06:55:22.745Z,6.70
2018-12-04T06:57:58.429Z,6.70
2018-12-04T07:00:26.387Z,6.60
2018-12-04T07:02:54.361Z,6.60
2018-12-04T07:05:22.359Z,6.60
2018-12-04T07:07:50.274Z,6.60
2018-12-04T07:10:18.225Z,6.50
2018-12-04T07:12:46.163Z,6.50
2018-12-04T07:15:14.068Z,6.50
2018-12-04T07:17:42.003Z,6.50
2018-12-04T07:20:09.955Z,6.50
2018-12-04T07:22:37.888Z,6.50
2018-12-04T07:25:06.621Z,6.50
2018-12-04T07:27:34.638Z,6.50
2018-12-04T07:30:03.687Z,6.50
2018-12-04T07:32:32.588Z,6.50
2018-12-04T07:35:00.880Z,6.50
2018-12-04T07:37:29.170Z,6.50
2018-12-04T07:39:57.578Z,6.50
2018-12-04T07:42:25.993Z,6.40
2018-12-04T07:44:54.295Z,6.30
2018-12-04T07:47:22.836Z,6.30
2018-12-04T07:49:51.293Z,6.20
2018-12-04T07:52:19.700Z,6.20
2018-12-04T07:54:47.873Z,6.20
2018-12-04T07:57:16.394Z,6.10
2018-12-04T07:59:44.787Z,6.10
2018-12-04T08:02:13.179Z,6.10
2018-12-04T08:04:41.555Z,6.10
2018-12-04T08:07:09.757Z,6.10
2018-12-04T08:09:38.072Z,6.10
2018-12-04T08:12:06.572Z,6.10
2018-12-04T08:14:34.988Z,6.10
2018-12-04T08:17:03.385Z,6.10
2018-12-04T08:19:31.889Z,6.20
2018-12-04T08:22:00.290Z,6.30
2018-12-04T08:24:28.586Z,6.40
2018-12-04T08:26:56.898Z,6.50
2018-12-04T08:29:25.157Z,6.60
2018-12-04T08:31:53.538Z,6.70
2018-12-04T08:34:21.767Z,6.80
2018-12-04T08:36:49.960Z,6.80
2018-12-04T08:39:18.371Z,6.70
2018-12-04T08:41:47.449Z,6.70
2018-12-04T08:44:16.109Z,6.60
2018-12-04T08:46:44.871Z,6.60
2018-12-04T08:49:13.184Z,6.50
2018-12-04T08:51:41.474Z,6.50
2018-12-04T08:54:09.646Z,6.50
2018-12-04T08:56:38.604Z,6.40
2018-12-04T08:59:07.004Z,6.40
2018-12-04T09:01:35.376Z,6.40
2018-12-04T09:04:03.780Z,6.40
2018-12-04T09:06:35.822Z,6.40
2018-12-04T09:09:09.312Z,6.40
2018-12-04T09:11:37.892Z,6.40
2018-12-04T09:14:06.380Z,6.40
2018-12-04T09:16:34.560Z,6.40
2018-12-04T09:19:02.735Z,6.40
2018-12-04T09:21:31.728Z,6.50
2018-12-04T09:24:00.193Z,6.50
2018-12-04T09:26:28.745Z,6.60
2018-12-04T09:28:57.216Z,6.60
2018-12-04T09:31:25.574Z,6.70
2018-12-04T09:33:53.783Z,6.70
2018-12-04T09:36:22.104Z,6.70
2018-12-04T09:38:50.395Z,6.70
2018-12-04T09:41:18.783Z,6.70
2018-12-04T09:43:47.293Z,6.70
2018-12-04T09:46:15.556Z,6.70
2018-12-04T09:48:43.987Z,6.70
2018-12-04T09:51:12.494Z,6.70
2018-12-04T09:53:40.783Z,6.70
2018-12-04T09:56:09.052Z,6.80
2018-12-04T09:58:37.367Z,6.80
2018-12-04T10:01:05.642Z,6.70
2018-12-04T10:03:33.985Z,6.60
2018-12-04T10:06:02.366Z,6.60
2018-12-04T10:08:30.778Z,6.60
2018-12-04T10:10:59.179Z,6.60
2018-12-04T10:13:28.641Z,6.60
2018-12-04T10:15:56.899Z,6.60
2018-12-04T10:18:25.508Z,6.70
2018-12-04T10:20:54.107Z,6.70
2018-12-04T10:23:22.391Z,6.70
2018-12-04T10:25:51.318Z,6.70
2018-12-04T10:28:20.085Z,6.60
2018-12-04T10:30:53.840Z,6.60
2018-12-04T10:33:22.220Z,6.50
2018-12-04T10:35:50.642Z,6.50
2018-12-04T10:38:18.924Z,6.40
2018-12-04T10:40:47.220Z,6.30
2018-12-04T10:43:15.721Z,6.10
2018-12-04T10:45:43.915Z,5.90
2018-12-04T10:48:12.337Z,5.80
2018-12-04T10:50:41.227Z,5.70
2018-12-04T10:53:09.505Z,5.70
2018-12-04T10:55:37.931Z,5.70
2018-12-04T10:58:06.333Z,5.70
2018-12-04T11:00:41.085Z,5.70
2018-12-04T11:03:13.734Z,5.60
2018-12-04T11:05:42.781Z,5.70
2018-12-04T11:08:11.292Z,5.70
2018-12-04T11:10:39.794Z,5.70
2018-12-04T11:13:08.277Z,5.70
2018-12-04T11:15:36.577Z,5.70
2018-12-04T11:18:04.887Z,5.80
2018-12-04T11:20:33.158Z,5.90
2018-12-04T11:23:02.172Z,6.00
2018-12-04T11:25:30.620Z,6.00
2018-12-04T11:27:58.962Z,6.10
2018-12-04T11:30:27.212Z,6.10
2018-12-04T11:32:55.603Z,6.20
2018-12-04T11:35:23.982Z,6.30
2018-12-04T11:37:52.380Z,6.30
2018-12-04T11:40:20.997Z,6.40
2018-12-04T11:42:49.287Z,6.50
2018-12-04T11:45:17.779Z,6.50
2018-12-04T11:47:46.195Z,6.50
2018-12-04T11:50:14.494Z,6.60
2018-12-04T11:52:42.877Z,6.60
2018-12-04T11:55:11.191Z,6.60
2018-12-04T11:57:39.549Z,6.60
2018-12-04T12:00:15.385Z,6.60
2018-12-04T12:02:43.636Z,6.50
2018-12-04T12:05:12.155Z,6.50
2018-12-04T12:07:40.431Z,6.40
2018-12-04T12:10:10.076Z,6.40
2018-12-04T12:12:38.369Z,6.30
2018-12-04T12:15:06.981Z,6.20
2018-12-04T12:17:35.477Z,6.20
2018-12-04T12:20:04.719Z,6.20
2018-12-04T12:22:32.980Z,6.20
2018-12-04T12:25:01.279Z,6.30
2018-12-04T12:27:29.672Z,6.30
2018-12-04T12:29:57.976Z,6.40
2018-12-04T12:32:26.384Z,6.50
2018-12-04T12:34:54.892Z,6.50
2018-12-04T12:37:23.278Z,6.50
2018-12-04T12:39:52.789Z,6.50
2018-12-04T12:42:21.112Z,6.40
2018-12-04T12:44:49.500Z,6.40
2018-12-04T12:47:18.122Z,6.40
2018-12-04T12:49:46.619Z,6.30
2018-12-04T12:52:15.803Z,6.30
2018-12-04T12:54:44.505Z,6.30
2018-12-04T12:57:12.937Z,6.20
2018-12-04T12:59:41.359Z,6.20
2018-12-04T13:02:09.849Z,6.20
2018-12-04T13:04:38.347Z,6.20
2018-12-04T13:07:06.756Z,6.20
2018-12-04T13:09:35.251Z,6.20
2018-12-04T13:12:05.259Z,6.10
2018-12-04T13:14:33.664Z,6.10
2018-12-04T13:17:02.496Z,6.00
2018-12-04T13:19:30.895Z,6.00
2018-12-04T13:21:59.608Z,6.00
2018-12-04T13:24:27.924Z,6.00
2018-12-04T13:26:56.299Z,6.10
2018-12-04T13:29:24.597Z,6.00
2018-12-04T13:31:52.886Z,6.00
2018-12-04T13:34:21.291Z,6.10
2018-12-04T13:36:49.704Z,6.20
2018-12-04T13:39:18.129Z,6.20
2018-12-04T13:41:46.592Z,6.30
2018-12-04T13:44:14.954Z,6.30
2018-12-04T13:46:43.172Z,6.40
2018-12-04T13:49:11.696Z,6.40
2018-12-04T13:51:39.891Z,6.30
2018-12-04T13:54:08.388Z,6.20
2018-12-04T13:56:36.980Z,5.90
2018-12-04T13:59:05.409Z,5.70
2018-12-04T14:01:33.901Z,5.40
2018-12-04T14:04:03.195Z,5.30
2018-12-04T14:06:31.582Z,5.10
2018-12-04T14:09:00.129Z,5.00
2018-12-04T14:11:30.149Z,4.90
2018-12-04T14:13:58.676Z,4.80
2018-12-04T14:16:27.274Z,4.80
2018-12-04T14:18:55.959Z,4.80
2018-12-04T14:21:24.276Z,4.70
2018-12-04T14:23:52.716Z,4.70
2018-12-04T14:26:21.171Z,4.70
2018-12-04T14:28:49.574Z,4.70
2018-12-04T14:31:18.108Z,4.70
2018-12-04T14:33:46.872Z,4.70
2018-12-04T14:36:16.387Z,4.70
2018-12-04T14:38:44.900Z,4.70
2018-12-04T14:41:13.292Z,4.70
2018-12-04T14:43:41.828Z,4.70
2018-12-04T14:46:10.516Z,4.70
2018-12-04T14:48:38.939Z,4.60
2018-12-04T14:51:07.306Z,4.50
2018-12-04T14:53:35.692Z,4.50
2018-12-04T14:56:04.616Z,4.40
2018-12-04T14:58:33.051Z,4.30
2018-12-04T15:01:01.829Z,4.20
2018-12-04T15:03:30.240Z,4.10
2018-12-04T15:05:58.748Z,4.10
2018-12-04T15:08:28.329Z,4.00
2018-12-04T15:10:56.987Z,3.90
2018-12-04T15:13:26.004Z,3.90
2018-12-04T15:15:54.416Z,3.90
2018-12-04T15:18:22.887Z,4.00
2018-12-04T15:20:51.253Z,4.00
2018-12-04T15:23:19.733Z,4.00
2018-12-04T15:25:48.214Z,4.00
2018-12-04T15:28:16.902Z,3.90
2018-12-04T15:30:45.135Z,3.90
2018-12-04T15:33:13.606Z,3.90
2018-12-04T15:35:41.888Z,3.90
2018-12-04T15:38:10.685Z,3.90
2018-12-04T15:40:39.006Z,3.90
2018-12-04T15:43:07.581Z,4.00
2018-12-04T15:45:35.992Z,4.00
2018-12-04T15:48:04.559Z,4.00
2018-12-04T15:50:33.151Z,4.00
2018-12-04T15:53:01.625Z,4.10
2018-12-04T15:55:30.083Z,4.10
2018-12-04T15:57:58.392Z,4.00
2018-12-04T16:00:26.993Z,4.00
2018-12-04T16:02:55.291Z,3.90
2018-12-04T16:05:23.898Z,3.90
2018-12-04T16:07:52.193Z,3.90
2018-12-04T16:10:20.573Z,4.00
2018-12-04T16:12:49.011Z,4.00
2018-12-04T16:15:17.481Z,4.10
2018-12-04T16:17:45.796Z,4.10
2018-12-04T16:20:14.092Z,4.20
2018-12-04T16:22:42.574Z,4.30
2018-12-04T16:25:11.722Z,4.30
2018-12-04T16:27:40.689Z,4.30
2018-12-04T16:30:09.590Z,4.40
2018-12-04T16:32:38.338Z,4.30
2018-12-04T16:35:08.365Z,4.30
2018-12-04T16:37:36.872Z,4.30
2018-12-04T16:40:06.702Z,4.30
2018-12-04T16:42:35.309Z,4.30
2018-12-04T16:45:07.596Z,4.40
2018-12-04T16:47:35.969Z,4.30
2018-12-04T16:50:04.872Z,4.30
2018-12-04T16:52:33.261Z,4.20
2018-12-04T16:55:02.078Z,4.00
2018-12-04T16:57:30.525Z,3.90
2018-12-04T16:59:58.791Z,3.80
2018-12-04T17:02:27.584Z,3.70
2018-12-04T17:04:56.226Z,3.60
2018-12-04T17:07:24.689Z,3.50
2018-12-04T17:09:53.655Z,3.40
2018-12-04T17:12:22.472Z,3.40
2018-12-04T17:14:50.862Z,3.40
2018-12-04T17:17:19.535Z,3.30
2018-12-04T17:19:47.907Z,3.30
2018-12-04T17:22:16.351Z,3.20
2018-12-04T17:24:45.880Z,3.20
2018-12-04T17:27:14.378Z,3.10
2018-12-04T17:29:42.819Z,3.00
2018-12-04T17:32:12.704Z,3.00
2018-12-04T17:34:41.316Z,2.90
2018-12-04T17:37:11.311Z,3.00
2018-12-04T17:39:39.968Z,2.90
2018-12-04T17:42:08.882Z,2.90
2018-12-04T17:44:40.386Z,2.90
2018-12-04T17:47:08.771Z,2.80
2018-12-04T17:49:37.234Z,2.80
2018-12-04T17:52:07.120Z,2.70
2018-12-04T17:54:37.485Z,2.70
2018-12-04T17:57:06.369Z,2.70
2018-12-04T17:59:34.721Z,2.60
2018-12-04T18:02:04.250Z,2.60
2018-12-04T18:04:32.755Z,2.60
2018-12-04T18:07:01.252Z,2.50
2018-12-04T18:09:29.604Z,2.50
2018-12-04T18:11:59.338Z,2.40
2018-12-04T18:14:28.291Z,2.40
2018-12-04T18:16:56.722Z,2.40
2018-12-04T18:19:25.195Z,2.30
2018-12-04T18:21:53.689Z,2.30
2018-12-04T18:24:22.503Z,2.30
2018-12-04T18:26:51.006Z,2.30
2018-12-04T18:29:19.266Z,2.20
2018-12-04T18:31:47.846Z,2.20
2018-12-04T18:34:16.287Z,2.20
2018-12-04T18:36:45.090Z,2.10
2018-12-04T18:39:13.522Z,2.10
2018-12-04T18:41:41.914Z,2.10
2018-12-04T18:44:10.402Z,2.00
2018-12-04T18:46:38.921Z,2.00
2018-12-04T18:49:07.313Z,2.00
2018-12-04T18:51:35.608Z,1.90
2018-12-04T18:54:04.240Z,2.00
2018-12-04T18:56:32.606Z,2.00
2018-12-04T18:59:01.120Z,2.00
2018-12-04T19:01:30.760Z,2.00
2018-12-04T19:03:59.456Z,2.00
2018-12-04T19:06:27.745Z,2.00
2018-12-04T19:08:56.258Z,2.00
2018-12-04T19:11:26.482Z,2.00
2018-12-04T19:13:56.775Z,1.90
2018-12-04T19:16:27.569Z,1.90
2018-12-04T19:18:56.918Z,1.90
2018-12-04T19:21:25.409Z,1.80
2018-12-04T19:23:53.845Z,1.70
2018-12-04T19:26:22.241Z,1.70
2018-12-04T19:28:52.695Z,1.70
2018-12-04T19:31:22.420Z,1.60
2018-12-04T19:33:51.399Z,1.60
2018-12-04T19:36:21.332Z,1.50
2018-12-04T19:38:49.941Z,1.50
2018-12-04T19:41:19.844Z,1.40
2018-12-04T19:43:56.207Z,1.40
2018-12-04T19:46:20.216Z,1.40
2018-12-04T19:48:49.173Z,1.30
2018-12-04T19:51:18.233Z,1.30
2018-12-04T19:53:47.867Z,1.20
2018-12-04T19:56:16.376Z,1.20
2018-12-04T19:58:45.314Z,1.20
2018-12-04T20:01:13.799Z,1.20
2018-12-04T20:03:42.339Z,1.20
2018-12-04T20:06:11.143Z,1.20
2018-12-04T20:08:44.719Z,1.20
2018-12-04T20:11:13.144Z,1.20
2018-12-04T20:13:42.421Z,1.30
2018-12-04T20:16:10.860Z,1.40
2018-12-04T20:18:39.036Z,1.50
2018-12-04T20:21:07.536Z,1.50
2018-12-04T20:23:35.957Z,1.60
2018-12-04T20:26:04.452Z,1.70
2018-12-04T20:28:32.963Z,1.70
2018-12-04T20:31:01.330Z,1.80
2018-12-04T20:33:29.758Z,1.90
2018-12-04T20:35:58.159Z,2.00
2018-12-04T20:38:26.716Z,2.00
2018-12-04T20:40:55.179Z,2.10
2018-12-04T20:43:23.664Z,2.20
2018-12-04T20:45:51.969Z,2.20
2018-12-04T20:48:20.287Z,2.30
2018-12-04T20:50:48.948Z,2.30
2018-12-04T20:53:18.053Z,2.40
2018-12-04T20:55:47.213Z,2.40
2018-12-04T20:58:16.679Z,2.50
2018-12-04T21:00:45.567Z,2.50
2018-12-04T21:03:14.478Z,2.50
2018-12-04T21:05:42.936Z,2.60
2018-12-04T21:08:12.753Z,2.60
2018-12-04T21:10:41.993Z,2.70
2018-12-04T21:13:14.462Z,2.70
2018-12-04T21:15:40.923Z,2.70
2018-12-04T21:18:09.270Z,2.70
2018-12-04T21:20:37.845Z,2.70
2018-12-04T21:23:06.158Z,2.70
2018-12-04T21:25:34.562Z,2.70
2018-12-04T21:28:08.315Z,2.70
2018-12-04T21:30:42.258Z,2.70
2018-12-04T21:33:16.070Z,2.60
2018-12-04T21:35:50.230Z,2.60
2018-12-04T21:38:24.056Z,2.50
2018-12-04T21:40:59.464Z,2.40
2018-12-04T21:43:33.463Z,2.40
2018-12-04T21:46:07.137Z,2.30
2018-12-04T21:48:35.623Z,2.20
2018-12-04T21:51:04.162Z,2.10
2018-12-04T21:53:33.250Z,2.10
2018-12-04T21:56:01.665Z,2.00
2018-12-04T21:58:30.141Z,1.90
2018-12-04T22:00:58.563Z,1.80
2018-12-04T22:03:26.966Z,1.70
2018-12-04T22:05:55.591Z,1.60
2018-12-04T22:08:23.935Z,1.60
2018-12-04T22:10:52.260Z,1.50
2018-12-04T22:13:20.769Z,1.40
2018-12-04T22:15:49.042Z,1.30
2018-12-04T22:18:17.474Z,1.30
2018-12-04T22:20:45.968Z,1.20
2018-12-04T22:23:14.572Z,1.10
2018-12-04T22:25:42.976Z,1.10
2018-12-04T22:28:11.255Z,1.00
2018-12-04T22:30:39.644Z,1.00
2018-12-04T22:33:08.132Z,1.00
2018-12-04T22:35:36.467Z,0.90
2018-12-04T22:38:04.767Z,0.90
2018-12-04T22:40:33.153Z,0.90
2018-12-04T22:43:01.533Z,0.80
2018-12-04T22:45:29.856Z,0.80
2018-12-04T22:47:58.245Z,0.80
2018-12-04T22:50:26.871Z,0.80
2018-12-04T22:52:55.187Z,0.70
2018-12-04T22:55:23.539Z,0.70
2018-12-04T22:57:52.061Z,0.70
2018-12-04T23:00:31.691Z,0.70
2018-12-04T23:02:59.988Z,0.70
2018-12-04T23:05:28.494Z,0.60
2018-12-04T23:07:57.017Z,0.60
2018-12-04T23:10:25.955Z,0.50
2018-12-04T23:12:55.322Z,0.50
2018-12-04T23:15:23.733Z,0.50
2018-12-04T23:17:52.057Z,0.50
2018-12-04T23:20:20.542Z,0.40
2018-12-04T23:22:49.036Z,0.40
2018-12-04T23:25:18.363Z,0.40
2018-12-04T23:27:46.743Z,0.40
2018-12-04T23:30:15.273Z,0.30
2018-12-04T23:32:43.558Z,0.30
2018-12-04T23:35:12.066Z,0.30
2018-12-04T23:37:40.574Z,0.30
2018-12-04T23:40:09.079Z,0.30
2018-12-04T23:42:37.381Z,0.30
2018-12-04T23:45:06.204Z,0.20
2018-12-04T23:47:34.562Z,0.20
2018-12-04T23:50:03.017Z,0.20
2018-12-04T23:52:31.260Z,0.20
2018-12-04T23:54:59.781Z,0.20
2018-12-04T23:57:27.951Z,0.20
2018-12-04T23:59:56.381Z,0.30
